Anita, Iowa
Current Conditions -  °F | °C
As of 4:35 AM on Thursday 18 Dec 2014 (Local Time) from KAIO Reporting Station
Overcast Overcast  
Wind Chill: 19°   Ceiling: 7500
Heat Index: 25°   Visibility: 10mi
Dew Point: 19°   Wind: 5mph
Humidity: 80%   Direction: 90°E
Pressure: 30.23"   Gusts: NA
Location:  41.45°N, 94.76°W
Report Text: KAIO 181035Z AUTO 09004KT 10SM FEW060 OVC075 M04/M07 A3023 RMK AO2
Loading
Personal Weather Stations






























Interactive Weather Map New forecast layout! Learn more

10-Day Weather Forecast

Advertisements
Track Severe Weather on mobile